sensor_id;sensor_type;location;lat;lon;timestamp;P1;durP1;ratioP1;P2;durP2;ratioP2
11425;SDS011;5769;47.998;7.788;2023-09-30T00:01:39;5.63;;;2.10;;
11425;SDS011;5769;47.998;7.788;2023-09-30T00:04:06;5.88;;;2.30;;
11425;SDS011;5769;47.998;7.788;2023-09-30T00:06:34;5.75;;;1.95;;
11425;SDS011;5769;47.998;7.788;2023-09-30T00:09:00;4.72;;;2.03;;
11425;SDS011;5769;47.998;7.788;2023-09-30T00:11:28;5.88;;;2.20;;
11425;SDS011;5769;47.998;7.788;2023-09-30T00:13:56;7.03;;;2.10;;
11425;SDS011;5769;47.998;7.788;2023-09-30T00:16:22;6.53;;;2.15;;
11425;SDS011;5769;47.998;7.788;2023-09-30T00:18:49;5.07;;;1.88;;
11425;SDS011;5769;47.998;7.788;2023-09-30T00:21:16;6.95;;;2.17;;
11425;SDS011;5769;47.998;7.788;2023-09-30T00:23:42;6.28;;;2.10;;
11425;SDS011;5769;47.998;7.788;2023-09-30T00:26:09;6.05;;;2.10;;
11425;SDS011;5769;47.998;7.788;2023-09-30T00:28:36;6.07;;;2.17;;
11425;SDS011;5769;47.998;7.788;2023-09-30T00:31:07;4.70;;;1.85;;
11425;SDS011;5769;47.998;7.788;2023-09-30T00:33:35;5.60;;;1.80;;
11425;SDS011;5769;47.998;7.788;2023-09-30T00:36:05;4.95;;;1.85;;
11425;SDS011;5769;47.998;7.788;2023-09-30T00:38:33;7.78;;;1.90;;
11425;SDS011;5769;47.998;7.788;2023-09-30T00:40:59;5.53;;;2.13;;
11425;SDS011;5769;47.998;7.788;2023-09-30T00:43:26;7.00;;;2.03;;
11425;SDS011;5769;47.998;7.788;2023-09-30T00:45:54;6.32;;;2.17;;
11425;SDS011;5769;47.998;7.788;2023-09-30T00:48:31;4.97;;;2.03;;
11425;SDS011;5769;47.998;7.788;2023-09-30T00:50:59;5.63;;;1.98;;
11425;SDS011;5769;47.998;7.788;2023-09-30T00:53:26;4.55;;;1.80;;
11425;SDS011;5769;47.998;7.788;2023-09-30T00:55:53;5.28;;;1.85;;
11425;SDS011;5769;47.998;7.788;2023-09-30T00:58:22;5.93;;;2.00;;
11425;SDS011;5769;47.998;7.788;2023-09-30T01:00:51;6.63;;;2.00;;
11425;SDS011;5769;47.998;7.788;2023-09-30T01:03:17;4.80;;;2.10;;
11425;SDS011;5769;47.998;7.788;2023-09-30T01:05:46;5.88;;;1.90;;
11425;SDS011;5769;47.998;7.788;2023-09-30T01:08:14;3.45;;;1.42;;
11425;SDS011;5769;47.998;7.788;2023-09-30T01:10:41;5.03;;;1.85;;
11425;SDS011;5769;47.998;7.788;2023-09-30T01:13:08;5.13;;;1.73;;
11425;SDS011;5769;47.998;7.788;2023-09-30T01:15:35;5.50;;;1.90;;
11425;SDS011;5769;47.998;7.788;2023-09-30T01:18:02;5.13;;;1.92;;
11425;SDS011;5769;47.998;7.788;2023-09-30T01:20:29;6.93;;;1.70;;
11425;SDS011;5769;47.998;7.788;2023-09-30T01:22:58;4.53;;;1.85;;
11425;SDS011;5769;47.998;7.788;2023-09-30T01:25:24;5.38;;;1.80;;
11425;SDS011;5769;47.998;7.788;2023-09-30T01:27:51;3.90;;;1.50;;
11425;SDS011;5769;47.998;7.788;2023-09-30T01:30:19;6.22;;;2.00;;
11425;SDS011;5769;47.998;7.788;2023-09-30T01:32:47;3.80;;;1.50;;
11425;SDS011;5769;47.998;7.788;2023-09-30T01:35:14;4.53;;;1.63;;
11425;SDS011;5769;47.998;7.788;2023-09-30T01:37:41;4.57;;;1.70;;
11425;SDS011;5769;47.998;7.788;2023-09-30T01:40:09;6.35;;;1.90;;
11425;SDS011;5769;47.998;7.788;2023-09-30T01:42:36;3.70;;;1.52;;
11425;SDS011;5769;47.998;7.788;2023-09-30T01:45:03;5.15;;;1.60;;
11425;SDS011;5769;47.998;7.788;2023-09-30T01:47:31;3.72;;;1.65;;
11425;SDS011;5769;47.998;7.788;2023-09-30T01:49:57;6.13;;;1.70;;
11425;SDS011;5769;47.998;7.788;2023-09-30T01:52:24;4.10;;;1.63;;
11425;SDS011;5769;47.998;7.788;2023-09-30T01:54:51;3.08;;;1.30;;
11425;SDS011;5769;47.998;7.788;2023-09-30T01:57:20;4.82;;;1.88;;
11425;SDS011;5769;47.998;7.788;2023-09-30T01:59:47;4.90;;;1.77;;
11425;SDS011;5769;47.998;7.788;2023-09-30T02:02:14;5.45;;;1.70;;
11425;SDS011;5769;47.998;7.788;2023-09-30T02:04:41;4.38;;;1.50;;
11425;SDS011;5769;47.998;7.788;2023-09-30T02:07:08;6.07;;;1.50;;
11425;SDS011;5769;47.998;7.788;2023-09-30T02:09:35;3.58;;;1.50;;
11425;SDS011;5769;47.998;7.788;2023-09-30T02:12:02;5.07;;;1.70;;
11425;SDS011;5769;47.998;7.788;2023-09-30T02:14:30;3.97;;;1.60;;
11425;SDS011;5769;47.998;7.788;2023-09-30T02:16:58;6.05;;;1.70;;
11425;SDS011;5769;47.998;7.788;2023-09-30T02:19:24;4.45;;;1.60;;
11425;SDS011;5769;47.998;7.788;2023-09-30T02:21:52;4.53;;;1.70;;
11425;SDS011;5769;47.998;7.788;2023-09-30T02:24:19;4.68;;;1.60;;
11425;SDS011;5769;47.998;7.788;2023-09-30T02:26:48;3.92;;;1.50;;
11425;SDS011;5769;47.998;7.788;2023-09-30T02:29:14;3.40;;;1.48;;
11425;SDS011;5769;47.998;7.788;2023-09-30T02:31:42;4.18;;;1.70;;
11425;SDS011;5769;47.998;7.788;2023-09-30T02:34:09;5.82;;;1.70;;
11425;SDS011;5769;47.998;7.788;2023-09-30T02:36:36;4.75;;;1.55;;
11425;SDS011;5769;47.998;7.788;2023-09-30T02:39:04;6.28;;;1.70;;
11425;SDS011;5769;47.998;7.788;2023-09-30T02:41:33;4.75;;;1.52;;
11425;SDS011;5769;47.998;7.788;2023-09-30T02:44:00;4.82;;;1.50;;
11425;SDS011;5769;47.998;7.788;2023-09-30T02:46:27;3.95;;;1.40;;
11425;SDS011;5769;47.998;7.788;2023-09-30T02:48:55;5.10;;;1.50;;
11425;SDS011;5769;47.998;7.788;2023-09-30T02:51:22;4.07;;;1.63;;
11425;SDS011;5769;47.998;7.788;2023-09-30T02:53:50;4.05;;;1.38;;
11425;SDS011;5769;47.998;7.788;2023-09-30T02:56:17;4.13;;;1.60;;
11425;SDS011;5769;47.998;7.788;2023-09-30T02:58:44;3.47;;;1.38;;
11425;SDS011;5769;47.998;7.788;2023-09-30T03:01:13;3.63;;;1.40;;
11425;SDS011;5769;47.998;7.788;2023-09-30T03:03:41;4.45;;;1.50;;
11425;SDS011;5769;47.998;7.788;2023-09-30T03:06:10;5.13;;;1.60;;
11425;SDS011;5769;47.998;7.788;2023-09-30T03:08:37;4.30;;;1.23;;
11425;SDS011;5769;47.998;7.788;2023-09-30T03:11:03;5.07;;;1.55;;
11425;SDS011;5769;47.998;7.788;2023-09-30T03:13:30;5.15;;;1.63;;
11425;SDS011;5769;47.998;7.788;2023-09-30T03:15:57;4.45;;;1.50;;
11425;SDS011;5769;47.998;7.788;2023-09-30T03:18:24;3.33;;;1.38;;
11425;SDS011;5769;47.998;7.788;2023-09-30T03:20:51;4.60;;;1.48;;
11425;SDS011;5769;47.998;7.788;2023-09-30T03:23:22;4.47;;;1.42;;
11425;SDS011;5769;47.998;7.788;2023-09-30T03:25:55;3.70;;;1.27;;
11425;SDS011;5769;47.998;7.788;2023-09-30T03:28:22;5.20;;;1.70;;
11425;SDS011;5769;47.998;7.788;2023-09-30T03:30:49;4.50;;;1.58;;
11425;SDS011;5769;47.998;7.788;2023-09-30T03:33:15;4.03;;;1.60;;
11425;SDS011;5769;47.998;7.788;2023-09-30T03:35:42;4.15;;;1.38;;
11425;SDS011;5769;47.998;7.788;2023-09-30T03:38:09;3.75;;;1.15;;
11425;SDS011;5769;47.998;7.788;2023-09-30T03:40:39;3.63;;;1.40;;
11425;SDS011;5769;47.998;7.788;2023-09-30T03:43:09;3.95;;;1.40;;
11425;SDS011;5769;47.998;7.788;2023-09-30T03:45:36;3.75;;;1.30;;
11425;SDS011;5769;47.998;7.788;2023-09-30T03:48:04;2.65;;;1.20;;
11425;SDS011;5769;47.998;7.788;2023-09-30T03:50:31;3.22;;;1.20;;
11425;SDS011;5769;47.998;7.788;2023-09-30T03:53:01;3.33;;;1.20;;
11425;SDS011;5769;47.998;7.788;2023-09-30T03:55:28;3.55;;;1.23;;
11425;SDS011;5769;47.998;7.788;2023-09-30T03:57:56;3.45;;;1.23;;
11425;SDS011;5769;47.998;7.788;2023-09-30T04:00:23;4.60;;;1.30;;
11425;SDS011;5769;47.998;7.788;2023-09-30T04:02:50;4.97;;;1.45;;
11425;SDS011;5769;47.998;7.788;2023-09-30T04:05:20;3.50;;;1.35;;
11425;SDS011;5769;47.998;7.788;2023-09-30T04:07:51;3.40;;;1.20;;
11425;SDS011;5769;47.998;7.788;2023-09-30T04:10:18;2.60;;;1.20;;
11425;SDS011;5769;47.998;7.788;2023-09-30T04:12:44;4.80;;;1.40;;
11425;SDS011;5769;47.998;7.788;2023-09-30T04:15:12;4.07;;;1.40;;
11425;SDS011;5769;47.998;7.788;2023-09-30T04:17:39;3.22;;;1.20;;
11425;SDS011;5769;47.998;7.788;2023-09-30T04:20:06;4.20;;;1.27;;
11425;SDS011;5769;47.998;7.788;2023-09-30T04:22:35;3.83;;;1.40;;
11425;SDS011;5769;47.998;7.788;2023-09-30T04:25:02;3.63;;;1.00;;
11425;SDS011;5769;47.998;7.788;2023-09-30T04:27:31;4.05;;;1.38;;
11425;SDS011;5769;47.998;7.788;2023-09-30T04:29:58;4.32;;;1.30;;
11425;SDS011;5769;47.998;7.788;2023-09-30T04:32:26;3.92;;;1.38;;
11425;SDS011;5769;47.998;7.788;2023-09-30T04:34:52;3.60;;;1.50;;
11425;SDS011;5769;47.998;7.788;2023-09-30T04:37:19;4.47;;;1.20;;
11425;SDS011;5769;47.998;7.788;2023-09-30T04:39:46;4.38;;;1.50;;
11425;SDS011;5769;47.998;7.788;2023-09-30T04:42:13;3.78;;;1.13;;
11425;SDS011;5769;47.998;7.788;2023-09-30T04:44:41;3.35;;;1.20;;
11425;SDS011;5769;47.998;7.788;2023-09-30T04:47:08;5.07;;;1.42;;
11425;SDS011;5769;47.998;7.788;2023-09-30T04:49:36;4.38;;;1.30;;
11425;SDS011;5769;47.998;7.788;2023-09-30T04:52:03;3.60;;;1.30;;
11425;SDS011;5769;47.998;7.788;2023-09-30T04:54:32;3.78;;;1.40;;
11425;SDS011;5769;47.998;7.788;2023-09-30T04:57:00;2.65;;;1.05;;
11425;SDS011;5769;47.998;7.788;2023-09-30T04:59:27;2.95;;;1.20;;
11425;SDS011;5769;47.998;7.788;2023-09-30T05:01:54;3.88;;;1.40;;
11425;SDS011;5769;47.998;7.788;2023-09-30T05:04:21;4.32;;;1.25;;
11425;SDS011;5769;47.998;7.788;2023-09-30T05:06:50;4.50;;;1.30;;
11425;SDS011;5769;47.998;7.788;2023-09-30T05:09:16;3.28;;;1.20;;
11425;SDS011;5769;47.998;7.788;2023-09-30T05:11:43;3.65;;;1.25;;
11425;SDS011;5769;47.998;7.788;2023-09-30T05:14:10;3.08;;;1.10;;
11425;SDS011;5769;47.998;7.788;2023-09-30T05:16:37;3.85;;;1.40;;
11425;SDS011;5769;47.998;7.788;2023-09-30T05:19:04;2.58;;;1.00;;
11425;SDS011;5769;47.998;7.788;2023-09-30T05:21:30;3.28;;;1.17;;
11425;SDS011;5769;47.998;7.788;2023-09-30T05:23:58;2.90;;;1.10;;
11425;SDS011;5769;47.998;7.788;2023-09-30T05:26:25;4.63;;;1.30;;
11425;SDS011;5769;47.998;7.788;2023-09-30T05:28:51;4.43;;;1.30;;
11425;SDS011;5769;47.998;7.788;2023-09-30T05:31:18;2.97;;;1.38;;
11425;SDS011;5769;47.998;7.788;2023-09-30T05:33:46;3.08;;;1.10;;
11425;SDS011;5769;47.998;7.788;2023-09-30T05:36:13;2.70;;;1.08;;
11425;SDS011;5769;47.998;7.788;2023-09-30T05:38:39;3.05;;;1.02;;
11425;SDS011;5769;47.998;7.788;2023-09-30T05:41:08;3.67;;;1.10;;
11425;SDS011;5769;47.998;7.788;2023-09-30T05:43:36;3.00;;;1.10;;
11425;SDS011;5769;47.998;7.788;2023-09-30T05:46:03;2.72;;;0.90;;
11425;SDS011;5769;47.998;7.788;2023-09-30T05:48:30;4.72;;;1.40;;
11425;SDS011;5769;47.998;7.788;2023-09-30T05:50:57;2.83;;;1.20;;
11425;SDS011;5769;47.998;7.788;2023-09-30T05:53:23;2.92;;;1.02;;
11425;SDS011;5769;47.998;7.788;2023-09-30T05:55:50;4.88;;;1.42;;
11425;SDS011;5769;47.998;7.788;2023-09-30T05:58:18;2.60;;;1.00;;
11425;SDS011;5769;47.998;7.788;2023-09-30T06:00:45;2.70;;;1.00;;
11425;SDS011;5769;47.998;7.788;2023-09-30T06:03:12;3.97;;;1.25;;
11425;SDS011;5769;47.998;7.788;2023-09-30T06:05:39;2.85;;;1.00;;
11425;SDS011;5769;47.998;7.788;2023-09-30T06:08:06;3.13;;;1.10;;
11425;SDS011;5769;47.998;7.788;2023-09-30T06:10:35;3.25;;;1.13;;
11425;SDS011;5769;47.998;7.788;2023-09-30T06:13:03;2.80;;;1.10;;
11425;SDS011;5769;47.998;7.788;2023-09-30T06:15:32;2.70;;;1.10;;
11425;SDS011;5769;47.998;7.788;2023-09-30T06:17:58;2.95;;;1.10;;
11425;SDS011;5769;47.998;7.788;2023-09-30T06:20:25;4.55;;;1.10;;
11425;SDS011;5769;47.998;7.788;2023-09-30T06:22:55;3.13;;;1.00;;
11425;SDS011;5769;47.998;7.788;2023-09-30T06:25:22;4.07;;;1.00;;
11425;SDS011;5769;47.998;7.788;2023-09-30T06:27:49;3.10;;;1.05;;
11425;SDS011;5769;47.998;7.788;2023-09-30T06:30:16;3.15;;;1.08;;
11425;SDS011;5769;47.998;7.788;2023-09-30T06:32:45;4.57;;;1.20;;
11425;SDS011;5769;47.998;7.788;2023-09-30T06:35:12;2.40;;;0.90;;
11425;SDS011;5769;47.998;7.788;2023-09-30T06:37:39;3.80;;;1.13;;
11425;SDS011;5769;47.998;7.788;2023-09-30T06:40:07;3.53;;;1.00;;
11425;SDS011;5769;47.998;7.788;2023-09-30T06:42:36;2.80;;;0.93;;
11425;SDS011;5769;47.998;7.788;2023-09-30T06:45:05;2.92;;;1.10;;
11425;SDS011;5769;47.998;7.788;2023-09-30T06:47:32;3.72;;;1.27;;
11425;SDS011;5769;47.998;7.788;2023-09-30T06:50:01;2.85;;;1.05;;
11425;SDS011;5769;47.998;7.788;2023-09-30T06:52:32;2.05;;;0.77;;
11425;SDS011;5769;47.998;7.788;2023-09-30T06:54:59;3.50;;;1.13;;
11425;SDS011;5769;47.998;7.788;2023-09-30T06:57:26;3.22;;;1.10;;
11425;SDS011;5769;47.998;7.788;2023-09-30T06:59:53;2.63;;;0.90;;
11425;SDS011;5769;47.998;7.788;2023-09-30T07:02:20;2.78;;;1.08;;
11425;SDS011;5769;47.998;7.788;2023-09-30T07:04:47;2.67;;;1.13;;
11425;SDS011;5769;47.998;7.788;2023-09-30T07:07:15;2.90;;;1.10;;
11425;SDS011;5769;47.998;7.788;2023-09-30T07:09:42;3.08;;;1.15;;
11425;SDS011;5769;47.998;7.788;2023-09-30T07:12:09;4.05;;;1.02;;
11425;SDS011;5769;47.998;7.788;2023-09-30T07:14:37;2.72;;;1.10;;
11425;SDS011;5769;47.998;7.788;2023-09-30T07:17:03;3.25;;;0.90;;
11425;SDS011;5769;47.998;7.788;2023-09-30T07:19:30;2.90;;;1.08;;
11425;SDS011;5769;47.998;7.788;2023-09-30T07:21:57;3.90;;;1.08;;
11425;SDS011;5769;47.998;7.788;2023-09-30T07:24:25;3.42;;;1.10;;
11425;SDS011;5769;47.998;7.788;2023-09-30T07:26:52;2.55;;;0.90;;
11425;SDS011;5769;47.998;7.788;2023-09-30T07:29:18;3.60;;;1.10;;
11425;SDS011;5769;47.998;7.788;2023-09-30T07:31:45;2.92;;;1.20;;
11425;SDS011;5769;47.998;7.788;2023-09-30T07:34:12;2.63;;;0.85;;
11425;SDS011;5769;47.998;7.788;2023-09-30T07:36:38;3.17;;;1.00;;
11425;SDS011;5769;47.998;7.788;2023-09-30T07:39:05;3.53;;;1.10;;
11425;SDS011;5769;47.998;7.788;2023-09-30T07:41:35;2.83;;;1.05;;
11425;SDS011;5769;47.998;7.788;2023-09-30T07:44:02;3.25;;;0.98;;
11425;SDS011;5769;47.998;7.788;2023-09-30T07:46:30;2.38;;;1.00;;
11425;SDS011;5769;47.998;7.788;2023-09-30T07:48:56;3.03;;;0.90;;
11425;SDS011;5769;47.998;7.788;2023-09-30T07:51:24;2.80;;;1.20;;
11425;SDS011;5769;47.998;7.788;2023-09-30T07:53:51;2.40;;;0.90;;
11425;SDS011;5769;47.998;7.788;2023-09-30T07:56:18;2.75;;;1.00;;
11425;SDS011;5769;47.998;7.788;2023-09-30T07:58:46;2.53;;;1.17;;
11425;SDS011;5769;47.998;7.788;2023-09-30T08:01:13;2.47;;;0.98;;
11425;SDS011;5769;47.998;7.788;2023-09-30T08:03:40;3.17;;;1.00;;
11425;SDS011;5769;47.998;7.788;2023-09-30T08:06:07;2.47;;;1.13;;
11425;SDS011;5769;47.998;7.788;2023-09-30T08:08:34;3.45;;;1.23;;
11425;SDS011;5769;47.998;7.788;2023-09-30T08:11:02;3.85;;;1.10;;
11425;SDS011;5769;47.998;7.788;2023-09-30T08:13:29;1.98;;;1.00;;
11425;SDS011;5769;47.998;7.788;2023-09-30T08:15:58;4.35;;;1.08;;
11425;SDS011;5769;47.998;7.788;2023-09-30T08:18:25;3.53;;;1.00;;
11425;SDS011;5769;47.998;7.788;2023-09-30T08:20:52;3.10;;;1.13;;
11425;SDS011;5769;47.998;7.788;2023-09-30T08:23:19;4.80;;;1.00;;
11425;SDS011;5769;47.998;7.788;2023-09-30T08:25:46;3.60;;;1.20;;
11425;SDS011;5769;47.998;7.788;2023-09-30T08:28:12;2.88;;;0.93;;
11425;SDS011;5769;47.998;7.788;2023-09-30T08:30:39;3.60;;;1.10;;
11425;SDS011;5769;47.998;7.788;2023-09-30T08:33:07;3.88;;;1.10;;
11425;SDS011;5769;47.998;7.788;2023-09-30T08:35:35;3.50;;;1.23;;
11425;SDS011;5769;47.998;7.788;2023-09-30T08:38:03;1.90;;;0.88;;
11425;SDS011;5769;47.998;7.788;2023-09-30T08:40:30;3.13;;;0.90;;
11425;SDS011;5769;47.998;7.788;2023-09-30T08:42:57;3.15;;;1.05;;
11425;SDS011;5769;47.998;7.788;2023-09-30T08:45:24;2.97;;;1.20;;
11425;SDS011;5769;47.998;7.788;2023-09-30T08:47:56;3.95;;;1.17;;
11425;SDS011;5769;47.998;7.788;2023-09-30T08:50:27;2.58;;;0.90;;
11425;SDS011;5769;47.998;7.788;2023-09-30T08:52:54;3.38;;;1.00;;
11425;SDS011;5769;47.998;7.788;2023-09-30T08:55:21;1.63;;;0.80;;
11425;SDS011;5769;47.998;7.788;2023-09-30T08:57:50;3.15;;;0.98;;
11425;SDS011;5769;47.998;7.788;2023-09-30T09:00:18;3.10;;;1.00;;
11425;SDS011;5769;47.998;7.788;2023-09-30T09:02:46;3.08;;;1.27;;
11425;SDS011;5769;47.998;7.788;2023-09-30T09:05:13;3.13;;;1.00;;
11425;SDS011;5769;47.998;7.788;2023-09-30T09:07:42;2.65;;;1.08;;
11425;SDS011;5769;47.998;7.788;2023-09-30T09:10:09;3.08;;;0.93;;
11425;SDS011;5769;47.998;7.788;2023-09-30T09:12:38;3.03;;;1.10;;
11425;SDS011;5769;47.998;7.788;2023-09-30T09:15:06;2.45;;;0.80;;
11425;SDS011;5769;47.998;7.788;2023-09-30T09:17:41;2.97;;;1.00;;
11425;SDS011;5769;47.998;7.788;2023-09-30T09:20:10;4.25;;;1.08;;
11425;SDS011;5769;47.998;7.788;2023-09-30T09:22:39;2.40;;;0.73;;
11425;SDS011;5769;47.998;7.788;2023-09-30T09:25:08;4.88;;;1.15;;
11425;SDS011;5769;47.998;7.788;2023-09-30T09:27:36;2.95;;;1.00;;
11425;SDS011;5769;47.998;7.788;2023-09-30T09:30:18;3.70;;;1.10;;
11425;SDS011;5769;47.998;7.788;2023-09-30T09:32:53;2.10;;;0.88;;
11425;SDS011;5769;47.998;7.788;2023-09-30T09:35:20;4.00;;;1.10;;
11425;SDS011;5769;47.998;7.788;2023-09-30T09:37:57;3.90;;;1.10;;
11425;SDS011;5769;47.998;7.788;2023-09-30T09:40:25;4.18;;;1.08;;
11425;SDS011;5769;47.998;7.788;2023-09-30T09:42:53;2.72;;;1.02;;
11425;SDS011;5769;47.998;7.788;2023-09-30T09:45:21;2.47;;;0.90;;
11425;SDS011;5769;47.998;7.788;2023-09-30T09:47:48;6.30;;;1.15;;
11425;SDS011;5769;47.998;7.788;2023-09-30T09:50:17;2.47;;;0.90;;
11425;SDS011;5769;47.998;7.788;2023-09-30T09:52:46;2.97;;;1.00;;
11425;SDS011;5769;47.998;7.788;2023-09-30T09:55:16;2.97;;;1.00;;
11425;SDS011;5769;47.998;7.788;2023-09-30T09:57:44;3.20;;;1.10;;
11425;SDS011;5769;47.998;7.788;2023-09-30T10:00:12;3.17;;;0.95;;
11425;SDS011;5769;47.998;7.788;2023-09-30T10:02:41;3.45;;;1.08;;
11425;SDS011;5769;47.998;7.788;2023-09-30T10:05:08;3.45;;;0.90;;
11425;SDS011;5769;47.998;7.788;2023-09-30T10:07:37;4.35;;;0.95;;
11425;SDS011;5769;47.998;7.788;2023-09-30T10:10:11;3.97;;;0.90;;
11425;SDS011;5769;47.998;7.788;2023-09-30T10:12:41;3.53;;;1.05;;
11425;SDS011;5769;47.998;7.788;2023-09-30T10:18:08;3.17;;;0.93;;
11425;SDS011;5769;47.998;7.788;2023-09-30T10:20:36;2.85;;;1.00;;
11425;SDS011;5769;47.998;7.788;2023-09-30T10:23:18;2.92;;;1.00;;
11425;SDS011;5769;47.998;7.788;2023-09-30T10:25:50;4.40;;;0.93;;
11425;SDS011;5769;47.998;7.788;2023-09-30T10:28:36;3.97;;;1.20;;
11425;SDS011;5769;47.998;7.788;2023-09-30T10:31:08;2.45;;;1.00;;
11425;SDS011;5769;47.998;7.788;2023-09-30T10:33:36;2.58;;;1.00;;
11425;SDS011;5769;47.998;7.788;2023-09-30T10:36:26;17.77;;;2.25;;
11425;SDS011;5769;47.998;7.788;2023-09-30T10:38:54;2.00;;;0.70;;
11425;SDS011;5769;47.998;7.788;2023-09-30T10:44:34;2.40;;;0.80;;
11425;SDS011;5769;47.998;7.788;2023-09-30T10:50:03;2.90;;;1.05;;
11425;SDS011;5769;47.998;7.788;2023-09-30T10:52:50;3.65;;;0.90;;
11425;SDS011;5769;47.998;7.788;2023-09-30T10:55:19;4.30;;;1.00;;
11425;SDS011;5769;47.998;7.788;2023-09-30T10:57:45;3.08;;;0.88;;
11425;SDS011;5769;47.998;7.788;2023-09-30T11:00:19;4.60;;;1.15;;
11425;SDS011;5769;47.998;7.788;2023-09-30T11:02:48;5.57;;;1.17;;
11425;SDS011;5769;47.998;7.788;2023-09-30T11:05:16;2.78;;;1.10;;
11425;SDS011;5769;47.998;7.788;2023-09-30T11:07:43;4.68;;;1.00;;
11425;SDS011;5769;47.998;7.788;2023-09-30T11:10:15;4.75;;;1.20;;
11425;SDS011;5769;47.998;7.788;2023-09-30T11:12:52;2.70;;;1.10;;
11425;SDS011;5769;47.998;7.788;2023-09-30T11:15:21;4.78;;;1.10;;
11425;SDS011;5769;47.998;7.788;2023-09-30T11:17:48;3.88;;;1.20;;
11425;SDS011;5769;47.998;7.788;2023-09-30T11:20:15;3.83;;;1.02;;
11425;SDS011;5769;47.998;7.788;2023-09-30T11:22:43;2.70;;;1.10;;
11425;SDS011;5769;47.998;7.788;2023-09-30T11:25:14;3.45;;;1.10;;
11425;SDS011;5769;47.998;7.788;2023-09-30T11:27:42;4.28;;;1.08;;
11425;SDS011;5769;47.998;7.788;2023-09-30T11:30:10;2.97;;;1.30;;
11425;SDS011;5769;47.998;7.788;2023-09-30T11:32:40;3.50;;;1.13;;
11425;SDS011;5769;47.998;7.788;2023-09-30T11:35:08;4.30;;;1.15;;
11425;SDS011;5769;47.998;7.788;2023-09-30T11:37:36;3.38;;;1.10;;
11425;SDS011;5769;47.998;7.788;2023-09-30T11:40:08;3.17;;;1.08;;
11425;SDS011;5769;47.998;7.788;2023-09-30T11:42:36;3.00;;;0.93;;
11425;SDS011;5769;47.998;7.788;2023-09-30T11:45:17;3.20;;;1.00;;
11425;SDS011;5769;47.998;7.788;2023-09-30T11:47:46;3.45;;;1.27;;
11425;SDS011;5769;47.998;7.788;2023-09-30T11:50:13;3.92;;;1.25;;
11425;SDS011;5769;47.998;7.788;2023-09-30T11:52:43;2.35;;;1.08;;
11425;SDS011;5769;47.998;7.788;2023-09-30T11:55:11;2.40;;;1.00;;
11425;SDS011;5769;47.998;7.788;2023-09-30T11:57:38;3.85;;;1.10;;
11425;SDS011;5769;47.998;7.788;2023-09-30T12:00:06;3.03;;;1.00;;
11425;SDS011;5769;47.998;7.788;2023-09-30T12:02:38;3.10;;;1.20;;
11425;SDS011;5769;47.998;7.788;2023-09-30T12:05:07;2.78;;;1.10;;
11425;SDS011;5769;47.998;7.788;2023-09-30T12:07:36;4.18;;;1.17;;
11425;SDS011;5769;47.998;7.788;2023-09-30T12:10:03;2.75;;;1.05;;
11425;SDS011;5769;47.998;7.788;2023-09-30T12:12:30;4.25;;;1.02;;
11425;SDS011;5769;47.998;7.788;2023-09-30T12:14:57;2.80;;;1.10;;
11425;SDS011;5769;47.998;7.788;2023-09-30T12:17:23;3.15;;;1.20;;
11425;SDS011;5769;47.998;7.788;2023-09-30T12:19:50;5.05;;;1.40;;
11425;SDS011;5769;47.998;7.788;2023-09-30T12:22:18;4.40;;;1.02;;
11425;SDS011;5769;47.998;7.788;2023-09-30T12:24:45;3.33;;;1.20;;
11425;SDS011;5769;47.998;7.788;2023-09-30T12:27:12;3.45;;;1.20;;
11425;SDS011;5769;47.998;7.788;2023-09-30T12:29:39;3.58;;;1.23;;
11425;SDS011;5769;47.998;7.788;2023-09-30T12:32:06;4.20;;;1.27;;
11425;SDS011;5769;47.998;7.788;2023-09-30T12:34:33;3.35;;;1.20;;
11425;SDS011;5769;47.998;7.788;2023-09-30T12:37:00;3.33;;;1.20;;
11425;SDS011;5769;47.998;7.788;2023-09-30T12:39:29;3.67;;;1.27;;
11425;SDS011;5769;47.998;7.788;2023-09-30T12:41:58;4.20;;;1.20;;
11425;SDS011;5769;47.998;7.788;2023-09-30T12:44:24;3.83;;;1.58;;
11425;SDS011;5769;47.998;7.788;2023-09-30T12:46:51;3.42;;;1.20;;
11425;SDS011;5769;47.998;7.788;2023-09-30T12:49:18;3.47;;;1.05;;
11425;SDS011;5769;47.998;7.788;2023-09-30T12:51:45;2.80;;;1.10;;
11425;SDS011;5769;47.998;7.788;2023-09-30T12:54:11;4.93;;;1.40;;
11425;SDS011;5769;47.998;7.788;2023-09-30T12:56:40;2.78;;;1.15;;
11425;SDS011;5769;47.998;7.788;2023-09-30T12:59:07;3.72;;;1.30;;
11425;SDS011;5769;47.998;7.788;2023-09-30T13:01:34;3.65;;;0.95;;
11425;SDS011;5769;47.998;7.788;2023-09-30T13:04:01;3.40;;;1.35;;
11425;SDS011;5769;47.998;7.788;2023-09-30T13:06:28;2.85;;;1.17;;
11425;SDS011;5769;47.998;7.788;2023-09-30T13:08:57;3.78;;;1.20;;
11425;SDS011;5769;47.998;7.788;2023-09-30T13:11:24;3.05;;;1.13;;
11425;SDS011;5769;47.998;7.788;2023-09-30T13:13:52;3.80;;;1.50;;
11425;SDS011;5769;47.998;7.788;2023-09-30T13:16:18;4.28;;;1.40;;
11425;SDS011;5769;47.998;7.788;2023-09-30T13:18:45;3.88;;;1.60;;
11425;SDS011;5769;47.998;7.788;2023-09-30T13:21:12;4.18;;;1.45;;
11425;SDS011;5769;47.998;7.788;2023-09-30T13:23:39;4.25;;;1.25;;
11425;SDS011;5769;47.998;7.788;2023-09-30T13:26:07;2.80;;;1.17;;
11425;SDS011;5769;47.998;7.788;2023-09-30T13:28:33;3.33;;;1.25;;
11425;SDS011;5769;47.998;7.788;2023-09-30T13:31:06;5.53;;;1.33;;
11425;SDS011;5769;47.998;7.788;2023-09-30T13:33:39;3.50;;;1.58;;
11425;SDS011;5769;47.998;7.788;2023-09-30T13:36:08;5.25;;;1.48;;
11425;SDS011;5769;47.998;7.788;2023-09-30T13:38:35;6.07;;;1.45;;
11425;SDS011;5769;47.998;7.788;2023-09-30T13:41:02;4.38;;;1.40;;
11425;SDS011;5769;47.998;7.788;2023-09-30T13:43:29;3.58;;;1.40;;
11425;SDS011;5769;47.998;7.788;2023-09-30T13:45:56;5.47;;;1.60;;
11425;SDS011;5769;47.998;7.788;2023-09-30T13:48:26;5.80;;;1.42;;
11425;SDS011;5769;47.998;7.788;2023-09-30T13:50:54;3.28;;;1.35;;
11425;SDS011;5769;47.998;7.788;2023-09-30T13:53:29;5.13;;;1.40;;
11425;SDS011;5769;47.998;7.788;2023-09-30T13:55:57;4.50;;;1.42;;
11425;SDS011;5769;47.998;7.788;2023-09-30T13:58:24;3.38;;;1.48;;
11425;SDS011;5769;47.998;7.788;2023-09-30T14:00:51;4.03;;;1.50;;
11425;SDS011;5769;47.998;7.788;2023-09-30T14:03:18;4.07;;;1.58;;
11425;SDS011;5769;47.998;7.788;2023-09-30T14:05:46;4.78;;;1.58;;
11425;SDS011;5769;47.998;7.788;2023-09-30T14:08:14;3.72;;;1.60;;
11425;SDS011;5769;47.998;7.788;2023-09-30T14:10:44;5.47;;;1.90;;
11425;SDS011;5769;47.998;7.788;2023-09-30T14:13:11;4.10;;;1.40;;
11425;SDS011;5769;47.998;7.788;2023-09-30T14:15:40;4.93;;;1.90;;
11425;SDS011;5769;47.998;7.788;2023-09-30T14:18:10;4.97;;;1.50;;
11425;SDS011;5769;47.998;7.788;2023-09-30T14:20:37;4.30;;;1.55;;
11425;SDS011;5769;47.998;7.788;2023-09-30T14:23:07;4.30;;;1.30;;
11425;SDS011;5769;47.998;7.788;2023-09-30T14:25:35;5.25;;;1.70;;
11425;SDS011;5769;47.998;7.788;2023-09-30T14:28:03;4.45;;;1.60;;
11425;SDS011;5769;47.998;7.788;2023-09-30T14:30:38;4.57;;;1.55;;
11425;SDS011;5769;47.998;7.788;2023-09-30T14:33:12;3.03;;;1.40;;
11425;SDS011;5769;47.998;7.788;2023-09-30T14:35:42;5.63;;;1.80;;
11425;SDS011;5769;47.998;7.788;2023-09-30T14:38:12;5.35;;;1.58;;
11425;SDS011;5769;47.998;7.788;2023-09-30T14:40:44;3.35;;;1.40;;
11425;SDS011;5769;47.998;7.788;2023-09-30T14:43:11;4.72;;;1.63;;
11425;SDS011;5769;47.998;7.788;2023-09-30T14:45:38;4.18;;;1.67;;
11425;SDS011;5769;47.998;7.788;2023-09-30T14:48:05;3.85;;;1.50;;
11425;SDS011;5769;47.998;7.788;2023-09-30T14:50:32;4.35;;;1.60;;
11425;SDS011;5769;47.998;7.788;2023-09-30T14:52:59;4.47;;;1.52;;
11425;SDS011;5769;47.998;7.788;2023-09-30T14:55:30;5.07;;;1.73;;
11425;SDS011;5769;47.998;7.788;2023-09-30T14:58:00;2.55;;;1.17;;
11425;SDS011;5769;47.998;7.788;2023-09-30T15:00:31;3.20;;;1.48;;
11425;SDS011;5769;47.998;7.788;2023-09-30T15:02:58;6.10;;;1.60;;
11425;SDS011;5769;47.998;7.788;2023-09-30T15:05:25;4.35;;;1.55;;
11425;SDS011;5769;47.998;7.788;2023-09-30T15:07:54;4.45;;;1.80;;
11425;SDS011;5769;47.998;7.788;2023-09-30T15:10:23;4.95;;;1.45;;
11425;SDS011;5769;47.998;7.788;2023-09-30T15:12:54;5.70;;;1.98;;
11425;SDS011;5769;47.998;7.788;2023-09-30T15:15:35;5.63;;;1.80;;